Time;durP1;ratioP1;P1;durP2;ratioP2;P2;SDS_P1;SDS_P2;PMS_P1;PMS_P2;Temp;Humidity;BMP_temperature;BMP_pressure;BME280_temperature;BME280_humidity;BME280_pressure;Samples;Min_cycle;Max_cycle;Signal;HPM_P1;HPM_P2
2023/12/16 00:00:19;;;;;;;16.90;5.73;;;;;;;6.56;95.25;103749.41;5138366;29;20039;-77
2023/12/16 00:02:50;;;;;;;14.07;6.93;;;;;;;6.60;94.78;103752.16;5138057;28;20150;-78
2023/12/16 00:05:22;;;;;;;16.50;5.77;;;;;;;6.60;94.74;103758.25;5137834;29;20078;-78
2023/12/16 00:07:53;;;;;;;15.30;6.53;;;;;;;6.63;94.08;103749.72;5137941;28;20529;-77
2023/12/16 00:10:24;;;;;;;17.90;6.27;;;;;;;6.65;93.63;103745.50;5219535;28;20044;-78
2023/12/16 00:12:56;;;;;;;14.60;5.97;;;;;;;6.64;93.16;103761.88;5137745;28;20062;-77
2023/12/16 00:15:29;;;;;;;20.65;7.13;;;;;;;6.62;93.82;103766.06;5137399;28;20048;-77
2023/12/16 00:18:00;;;;;;;11.40;5.77;;;;;;;6.61;93.93;103753.94;5137081;28;20036;-76
2023/12/16 00:20:32;;;;;;;14.63;5.77;;;;;;;6.63;93.66;103757.50;5137255;28;20424;-77
2023/12/16 00:23:03;;;;;;;16.90;6.67;;;;;;;6.66;93.58;103765.44;5137406;28;20040;-77
2023/12/16 00:25:34;;;;;;;15.00;6.27;;;;;;;6.62;93.79;103741.06;5137358;28;20035;-78
2023/12/16 00:28:06;;;;;;;18.10;5.77;;;;;;;6.67;92.70;103746.50;5137196;28;20032;-77
2023/12/16 00:30:37;;;;;;;19.23;5.63;;;;;;;6.67;92.73;103751.66;5137097;28;20127;-77
2023/12/16 00:33:08;;;;;;;18.03;5.17;;;;;;;6.65;92.09;103738.63;5137201;28;20032;-77
2023/12/16 00:35:40;;;;;;;13.17;5.23;;;;;;;6.67;91.75;103749.09;5137168;28;20039;-78
2023/12/16 00:38:11;;;;;;;16.33;5.17;;;;;;;6.66;91.83;103742.09;5137297;28;20043;-78
2023/12/16 00:40:43;;;;;;;17.03;5.93;;;;;;;6.66;92.69;103742.09;5137041;28;20058;-77
2023/12/16 00:43:14;;;;;;;20.30;5.43;;;;;;;6.67;92.36;103738.72;5137034;29;20039;-77
2023/12/16 00:45:45;;;;;;;19.37;4.93;;;;;;;6.64;92.72;103729.06;5136582;28;20046;-78
2023/12/16 00:48:17;;;;;;;13.77;5.53;;;;;;;6.62;92.35;103733.28;5137126;29;20040;-77
2023/12/16 00:50:48;;;;;;;15.33;5.00;;;;;;;6.64;92.01;103725.59;5137060;28;20046;-78
2023/12/16 00:53:19;;;;;;;13.73;4.53;;;;;;;6.65;91.95;103728.25;5135733;28;20039;-77
2023/12/16 00:55:51;;;;;;;15.43;6.10;;;;;;;6.67;91.91;103736.13;5137297;28;20036;-78
2023/12/16 00:58:22;;;;;;;12.70;4.43;;;;;;;6.66;91.55;103745.56;5218965;28;20032;-77
2023/12/16 01:00:53;;;;;;;14.57;5.57;;;;;;;6.63;92.27;103731.56;5137156;29;20043;-77
2023/12/16 01:03:25;;;;;;;13.97;5.23;;;;;;;6.63;91.88;103734.16;5136791;28;20055;-78
2023/12/16 01:05:56;;;;;;;11.80;4.40;;;;;;;6.62;92.21;103732.38;5137019;28;20036;-76
2023/12/16 01:08:28;;;;;;;15.53;4.80;;;;;;;6.61;91.79;103728.91;5141056;29;20117;-77
2023/12/16 01:10:59;;;;;;;15.20;5.43;;;;;;;6.60;92.03;103729.75;5140821;28;20082;-77
2023/12/16 01:13:31;;;;;;;17.07;4.87;;;;;;;6.62;91.66;103740.16;5140214;28;20065;-79
2023/12/16 01:16:03;;;;;;;13.87;4.53;;;;;;;6.64;92.18;103746.31;5139884;28;20054;-77
2023/12/16 01:18:35;;;;;;;13.68;4.22;;;;;;;6.63;91.52;103741.94;5140113;28;20027;-77
2023/12/16 01:21:08;;;;;;;15.07;5.43;;;;;;;6.61;91.86;103743.56;5140189;28;20055;-77
2023/12/16 01:23:40;;;;;;;12.93;4.65;;;;;;;6.60;92.61;103736.59;5221803;28;20089;-78
2023/12/16 01:26:11;;;;;;;15.17;5.40;;;;;;;6.57;92.65;103743.41;5140285;28;20111;-77
2023/12/16 01:28:43;;;;;;;15.87;4.47;;;;;;;6.56;93.33;103741.63;5139993;28;20031;-78
2023/12/16 01:31:14;;;;;;;23.47;5.97;;;;;;;6.54;92.73;103737.19;5140242;28;20040;-78
2023/12/16 01:33:46;;;;;;;14.87;5.03;;;;;;;6.54;92.35;103745.84;5139860;28;20034;-77
2023/12/16 01:36:19;;;;;;;16.27;5.27;;;;;;;6.55;92.56;103738.94;5139818;28;20032;-76
2023/12/16 01:38:50;;;;;;;15.23;4.65;;;;;;;6.56;92.38;103728.66;5139833;28;20036;-78
2023/12/16 01:41:22;;;;;;;14.00;4.53;;;;;;;6.53;93.01;103717.25;5139680;28;20036;-78
2023/12/16 01:43:53;;;;;;;18.47;5.13;;;;;;;6.52;93.42;103726.75;5138931;28;20082;-77
2023/12/16 01:46:25;;;;;;;17.80;5.27;;;;;;;6.53;92.81;103715.56;5139468;29;20032;-78
2023/12/16 01:48:57;;;;;;;16.20;4.67;;;;;;;6.53;92.55;103723.31;5139647;28;20062;-77
2023/12/16 01:51:30;;;;;;;15.13;4.27;;;;;;;6.53;92.28;103727.63;5139646;28;20357;-77
2023/12/16 01:54:01;;;;;;;17.08;4.55;;;;;;;6.53;92.45;103727.63;5139381;28;20078;-77
2023/12/16 01:56:33;;;;;;;15.33;4.97;;;;;;;6.51;92.80;103724.06;5139888;28;20035;-77
2023/12/16 01:59:05;;;;;;;14.75;4.10;;;;;;;6.49;92.64;103730.88;5139676;28;20036;-77
2023/12/16 02:01:37;;;;;;;13.95;5.50;;;;;;;6.44;93.15;103720.28;5139526;28;20031;-78
2023/12/16 02:04:09;;;;;;;13.40;4.40;;;;;;;6.45;92.66;103731.53;5139336;28;20066;-76
2023/12/16 02:06:41;;;;;;;21.08;5.40;;;;;;;6.47;92.46;103716.94;5139249;28;20036;-76
2023/12/16 02:09:17;;;;;;;18.97;6.03;;;;;;;6.42;92.77;103729.66;5139585;28;20035;-77
2023/12/16 02:11:48;;;;;;;16.15;4.97;;;;;;;6.35;93.04;103719.81;5139363;29;20039;-77
2023/12/16 02:14:20;;;;;;;10.87;4.63;;;;;;;6.33;93.33;103724.03;5139151;29;20051;-77
2023/12/16 02:16:51;;;;;;;19.73;5.17;;;;;;;6.31;93.42;103720.44;5138720;28;20123;-78
2023/12/16 02:19:27;;;;;;;13.13;5.30;;;;;;;6.26;93.26;103727.97;5136994;29;20028;-78
2023/12/16 02:21:59;;;;;;;13.18;4.60;;;;;;;6.20;93.64;103723.38;5139073;28;20031;-78
2023/12/16 02:24:34;;;;;;;18.80;5.27;;;;;;;6.06;94.37;103718.28;5153882;28;20544;-77
2023/12/16 02:27:05;;;;;;;15.43;4.28;;;;;;;5.93;95.09;103721.88;5139117;28;20358;-78
2023/12/16 02:29:37;;;;;;;16.87;6.17;;;;;;;5.87;95.27;103718.97;5139101;28;20115;-78
2023/12/16 02:32:09;;;;;;;10.73;4.67;;;;;;;5.76;95.96;103715.78;5138939;28;20502;-78
2023/12/16 02:34:40;;;;;;;16.75;4.88;;;;;;;5.66;96.66;103715.25;5138900;29;20038;-77
2023/12/16 02:37:12;;;;;;;19.37;6.30;;;;;;;5.56;97.32;103715.59;5139221;29;20067;-78
2023/12/16 02:39:43;;;;;;;14.00;5.33;;;;;;;5.49;97.97;103721.25;5138807;28;20032;-78
2023/12/16 02:42:15;;;;;;;12.87;4.83;;;;;;;5.40;98.58;103721.59;5138968;28;20032;-77
2023/12/16 02:44:46;;;;;;;17.20;6.23;;;;;;;5.34;99.06;103728.13;5137335;28;20039;-77
2023/12/16 02:47:18;;;;;;;18.80;4.93;;;;;;;5.34;99.56;103729.00;5138040;28;20030;-77
2023/12/16 02:49:49;;;;;;;21.37;5.37;;;;;;;5.35;99.89;103738.56;5136847;28;20130;-77
2023/12/16 02:52:20;;;;;;;10.90;5.03;;;;;;;5.40;99.99;103738.84;5137614;28;20024;-77
2023/12/16 02:54:52;;;;;;;15.73;4.67;;;;;;;5.41;99.82;103738.00;5136307;28;20039;-79
2023/12/16 02:57:23;;;;;;;15.03;4.50;;;;;;;5.44;99.57;103733.00;5138884;29;20412;-78
2023/12/16 02:59:55;;;;;;;16.77;5.97;;;;;;;5.47;100.00;103730.59;5137765;29;20494;-77
2023/12/16 03:02:26;;;;;;;18.97;5.83;;;;;;;5.50;99.69;103725.59;5138841;29;20040;-77
2023/12/16 03:04:57;;;;;;;16.50;5.67;;;;;;;5.59;99.28;103717.47;5137289;28;20082;-78
2023/12/16 03:07:29;;;;;;;22.73;5.83;;;;;;;5.61;98.64;103710.66;5138976;28;20387;-77
2023/12/16 03:10:00;;;;;;;11.93;4.80;;;;;;;5.59;98.55;103712.28;5139141;28;20031;-77
2023/12/16 03:12:32;;;;;;;18.80;5.07;;;;;;;5.63;98.65;103716.81;5138175;28;20067;-77
2023/12/16 03:15:03;;;;;;;22.30;6.13;;;;;;;5.55;98.50;103711.19;5138861;29;20032;-78
2023/12/16 03:17:35;;;;;;;18.33;5.90;;;;;;;5.55;98.26;103712.91;5137616;28;20040;-77
2023/12/16 03:20:08;;;;;;;24.10;6.50;;;;;;;5.53;98.37;103723.19;5138056;29;20031;-76
2023/12/16 03:22:39;;;;;;;21.20;6.43;;;;;;;5.52;98.89;103717.91;5138008;28;20497;-77
2023/12/16 03:25:10;;;;;;;15.80;5.43;;;;;;;5.56;99.13;103714.69;5137004;28;20036;-77
2023/12/16 03:27:42;;;;;;;11.87;4.60;;;;;;;5.59;98.47;103712.28;5138033;28;20115;-77
2023/12/16 03:30:13;;;;;;;14.67;5.43;;;;;;;5.57;98.42;103707.03;5137605;28;20032;-78
2023/12/16 03:32:45;;;;;;;13.57;4.63;;;;;;;5.58;98.66;103708.78;5138345;29;20429;-77
2023/12/16 03:35:16;;;;;;;16.63;5.90;;;;;;;5.59;98.68;103718.34;5138165;28;20035;-77
2023/12/16 03:37:48;;;;;;;14.93;4.87;;;;;;;5.58;98.58;103719.13;5138370;29;20062;-78
2023/12/16 03:40:19;;;;;;;16.63;5.53;;;;;;;5.62;98.76;103718.50;5138570;29;20034;-77
2023/12/16 03:42:51;;;;;;;18.57;5.20;;;;;;;5.68;97.96;103722.25;5154116;29;20036;-78
2023/12/16 03:45:23;;;;;;;13.23;4.67;;;;;;;5.69;97.94;103722.31;5153583;29;20036;-79
2023/12/16 03:47:54;;;;;;;17.85;6.28;;;;;;;5.68;98.01;103719.66;5139100;28;20032;-77
2023/12/16 03:50:25;;;;;;;19.70;5.90;;;;;;;5.70;98.52;103718.94;5137507;28;20127;-77
2023/12/16 03:52:57;;;;;;;16.07;4.93;;;;;;;5.71;98.36;103720.69;5137498;29;20036;-77
2023/12/16 03:55:28;;;;;;;15.47;5.37;;;;;;;5.73;98.13;103726.88;5137784;29;20383;-76
2023/12/16 03:58:00;;;;;;;17.77;6.03;;;;;;;5.77;97.75;103722.75;5137452;29;20071;-77
2023/12/16 04:00:31;;;;;;;17.43;5.70;;;;;;;5.81;97.92;103719.50;5137789;28;20032;-77
2023/12/16 04:03:03;;;;;;;20.00;6.67;;;;;;;5.83;98.25;103720.50;5137568;28;20047;-77
2023/12/16 04:05:35;;;;;;;14.77;5.37;;;;;;;5.90;97.39;103721.72;5137369;28;20090;-77
2023/12/16 04:08:07;;;;;;;18.65;4.93;;;;;;;5.90;97.39;103719.13;5137714;29;20516;-77
2023/12/16 04:10:38;;;;;;;14.33;4.23;;;;;;;5.91;97.84;103729.56;5137237;29;20028;-77
2023/12/16 04:13:10;;;;;;;17.47;5.43;;;;;;;5.95;97.34;103730.59;5137372;28;20051;-77
2023/12/16 04:15:41;;;;;;;15.57;5.70;;;;;;;5.94;97.59;103728.81;5135539;28;20024;-77
2023/12/16 04:18:13;;;;;;;12.90;5.00;;;;;;;5.96;97.51;103722.97;5137178;28;20135;-77
2023/12/16 04:20:44;;;;;;;15.10;4.87;;;;;;;5.97;97.76;103726.44;5137174;29;20028;-77
2023/12/16 04:23:15;;;;;;;15.40;5.17;;;;;;;5.98;97.83;103718.75;5136925;29;20463;-77
2023/12/16 04:25:47;;;;;;;18.03;5.77;;;;;;;6.01;97.68;103723.22;5137288;29;20043;-75
2023/12/16 04:28:18;;;;;;;16.60;5.33;;;;;;;6.01;97.85;103718.03;5137063;29;20118;-77
2023/12/16 04:30:49;;;;;;;15.23;5.33;;;;;;;6.05;97.64;103732.03;5137049;29;20031;-77
2023/12/16 04:33:21;;;;;;;17.77;6.83;;;;;;;6.03;97.54;103727.66;5136954;28;20040;-77
2023/12/16 04:35:52;;;;;;;10.30;4.97;;;;;;;6.05;98.16;103721.66;5136920;28;20367;-77
2023/12/16 04:38:23;;;;;;;16.97;5.60;;;;;;;6.03;97.95;103724.16;5137305;29;20506;-78
2023/12/16 04:40:55;;;;;;;20.80;5.17;;;;;;;5.96;98.36;103710.00;5136233;29;20039;-78
2023/12/16 04:43:26;;;;;;;15.73;5.20;;;;;;;5.91;98.73;103708.84;5135773;29;20118;-78
2023/12/16 04:45:59;;;;;;;17.77;5.20;;;;;;;5.86;99.22;103710.31;5136691;28;20040;-78
2023/12/16 04:48:30;;;;;;;17.25;6.07;;;;;;;5.89;99.23;103705.25;5136801;28;20047;-78
2023/12/16 04:51:06;;;;;;;12.70;5.43;;;;;;;5.84;99.37;103705.03;5136921;28;20035;-76
2023/12/16 04:53:37;;;;;;;19.98;5.18;;;;;;;5.79;99.71;103703.00;5136656;28;20471;-77
2023/12/16 04:56:09;;;;;;;22.67;6.13;;;;;;;5.76;100.00;103697.66;5136643;28;20065;-77
2023/12/16 04:58:40;;;;;;;19.20;6.50;;;;;;;5.68;100.00;103704.13;5135459;28;20355;-76
2023/12/16 05:01:11;;;;;;;16.13;5.60;;;;;;;5.66;100.00;103698.84;5136610;28;20119;-77
2023/12/16 05:03:43;;;;;;;14.37;6.27;;;;;;;5.61;100.00;103711.53;5135365;28;20042;-78
2023/12/16 05:06:14;;;;;;;16.23;5.83;;;;;;;5.53;100.00;103715.41;5136597;28;20068;-77
2023/12/16 05:08:46;;;;;;;14.80;5.00;;;;;;;5.50;100.00;103702.31;5136522;29;20043;-77
2023/12/16 05:11:17;;;;;;;14.27;5.97;;;;;;;5.48;100.00;103709.97;5136427;28;20067;-77
2023/12/16 05:13:49;;;;;;;16.23;6.03;;;;;;;5.43;100.00;103719.19;5136595;28;20139;-77
2023/12/16 05:16:20;;;;;;;15.07;6.20;;;;;;;5.44;100.00;103710.63;5135985;29;20052;-77
2023/12/16 05:18:52;;;;;;;18.70;5.13;;;;;;;5.42;100.00;103709.63;5136720;28;20122;-78
2023/12/16 05:21:23;;;;;;;16.30;5.30;;;;;;;5.40;100.00;103711.25;5136471;28;20097;-78
2023/12/16 05:23:54;;;;;;;14.70;5.70;;;;;;;5.39;100.00;103722.41;5136330;29;20035;-78
2023/12/16 05:26:26;;;;;;;20.30;6.67;;;;;;;5.38;100.00;103719.75;5151287;29;20032;-78
2023/12/16 05:28:57;;;;;;;20.73;5.83;;;;;;;5.36;100.00;103730.00;5136250;28;20038;-77
2023/12/16 05:31:29;;;;;;;19.57;6.47;;;;;;;5.34;100.00;103735.91;5135566;28;20032;-77
2023/12/16 05:34:00;;;;;;;17.63;4.90;;;;;;;5.25;100.00;103729.41;5136348;29;20043;-78
2023/12/16 05:36:31;;;;;;;17.57;5.70;;;;;;;5.32;100.00;103730.63;5136142;29;20063;-76
2023/12/16 05:39:03;;;;;;;24.60;7.17;;;;;;;5.27;100.00;103725.19;5136292;28;20158;-77
2023/12/16 05:41:35;;;;;;;20.13;6.73;;;;;;;5.33;100.00;103731.50;5136288;29;20166;-78
2023/12/16 05:44:06;;;;;;;15.40;5.73;;;;;;;5.38;100.00;103733.56;5136351;28;20047;-78
2023/12/16 05:46:38;;;;;;;14.27;5.83;;;;;;;5.32;100.00;103722.88;5135924;29;20024;-79
2023/12/16 05:49:09;;;;;;;13.77;6.03;;;;;;;5.26;100.00;103732.88;5136514;29;20467;-78
2023/12/16 05:51:41;;;;;;;18.00;5.33;;;;;;;5.27;100.00;103725.19;5136015;28;20043;-78
2023/12/16 05:54:12;;;;;;;19.47;5.50;;;;;;;5.21;100.00;103730.03;5139485;28;20153;-78
2023/12/16 05:56:44;;;;;;;13.27;5.17;;;;;;;5.19;100.00;103717.81;5138391;29;20032;-78
2023/12/16 05:59:15;;;;;;;17.67;6.23;;;;;;;5.17;100.00;103722.91;5139306;29;20062;-78
2023/12/16 06:01:47;;;;;;;18.20;6.27;;;;;;;5.15;100.00;103713.25;5139633;29;20063;-78
2023/12/16 06:04:18;;;;;;;18.33;5.87;;;;;;;5.05;100.00;103704.97;5139399;28;20039;-79
2023/12/16 06:06:49;;;;;;;20.57;5.73;;;;;;;5.03;100.00;103711.78;5139536;28;20036;-78
2023/12/16 06:09:21;;;;;;;16.80;5.00;;;;;;;5.02;100.00;103709.97;5122507;29;20036;-78
2023/12/16 06:11:52;;;;;;;16.00;6.00;;;;;;;5.00;100.00;103721.94;5138294;28;20090;-78
2023/12/16 06:14:23;;;;;;;18.43;5.87;;;;;;;5.00;100.00;103727.09;5139436;29;20052;-78
2023/12/16 06:16:55;;;;;;;16.77;5.77;;;;;;;5.00;100.00;103723.63;5137232;28;20036;-79
2023/12/16 06:19:26;;;;;;;19.10;7.60;;;;;;;4.99;100.00;103730.50;5139188;28;20036;-77
2023/12/16 06:21:57;;;;;;;19.60;5.10;;;;;;;4.96;100.00;103730.34;5139220;29;20070;-78
2023/12/16 06:24:29;;;;;;;19.80;5.53;;;;;;;4.88;100.00;103721.25;5121889;29;20102;-77
2023/12/16 06:27:00;;;;;;;18.20;4.80;;;;;;;4.99;100.00;103720.16;5139224;29;20067;-76
2023/12/16 06:29:32;;;;;;;15.73;5.90;;;;;;;5.05;100.00;103725.66;5137486;28;20080;-77
2023/12/16 06:32:03;;;;;;;19.90;5.30;;;;;;;5.05;100.00;103725.66;5138594;28;20077;-77
2023/12/16 06:34:35;;;;;;;14.70;6.10;;;;;;;5.02;100.00;103722.03;5138624;29;20436;-77
2023/12/16 06:37:06;;;;;;;18.43;5.67;;;;;;;4.93;100.00;103724.97;5138870;29;20031;-78
2023/12/16 06:39:37;;;;;;;13.50;5.30;;;;;;;4.94;100.00;103724.16;5138681;28;20043;-77
2023/12/16 06:42:09;;;;;;;15.67;5.13;;;;;;;4.99;100.00;103725.34;5138692;28;20106;-78
2023/12/16 06:44:40;;;;;;;18.17;5.37;;;;;;;4.91;100.00;103717.13;5139120;29;20050;-78
2023/12/16 06:47:12;;;;;;;17.87;6.43;;;;;;;4.83;100.00;103714.88;5138187;29;20070;-78
2023/12/16 06:49:43;;;;;;;15.90;4.50;;;;;;;4.80;100.00;103707.88;5138506;28;20434;-77
2023/12/16 06:52:15;;;;;;;14.73;5.10;;;;;;;4.79;100.00;103715.53;5138769;29;20443;-77
2023/12/16 06:54:46;;;;;;;13.73;5.50;;;;;;;4.68;100.00;103718.34;5138512;29;20032;-78
2023/12/16 06:57:18;;;;;;;17.30;5.63;;;;;;;4.63;100.00;103724.97;5138471;28;20036;-78
2023/12/16 06:59:49;;;;;;;22.07;6.10;;;;;;;4.56;100.00;103725.41;5138320;29;20043;-77
2023/12/16 07:02:20;;;;;;;18.53;5.70;;;;;;;4.63;100.00;103724.97;5171166;28;20045;-76
2023/12/16 07:04:52;;;;;;;17.07;5.97;;;;;;;4.65;100.00;103731.09;5242363;28;20040;-78
2023/12/16 07:07:26;;;;;;;21.07;5.33;;;;;;;4.60;100.00;103722.19;5241973;28;20072;-75
2023/12/16 07:09:57;;;;;;;16.58;5.50;;;;;;;4.60;100.00;103723.88;5242706;28;20036;-76
2023/12/16 07:12:28;;;;;;;20.80;5.27;;;;;;;4.62;100.00;103730.03;5242595;28;20333;-75
2023/12/16 07:15:00;;;;;;;17.87;5.40;;;;;;;4.60;100.00;103729.06;5242520;28;20064;-75
2023/12/16 07:17:31;;;;;;;22.57;5.33;;;;;;;4.59;100.00;103730.75;5241940;28;20120;-74
2023/12/16 07:20:03;;;;;;;17.00;5.23;;;;;;;4.57;100.00;103734.94;5242434;28;20108;-75
2023/12/16 07:22:34;;;;;;;17.67;5.13;;;;;;;4.59;100.00;103738.50;5240650;28;20481;-74
2023/12/16 07:25:06;;;;;;;19.60;5.63;;;;;;;4.61;100.00;103742.06;5175536;28;20503;-75
2023/12/16 07:27:38;;;;;;;15.68;5.97;;;;;;;4.62;100.00;103736.13;5141248;28;20032;-74
2023/12/16 07:30:10;;;;;;;13.90;5.43;;;;;;;4.64;100.00;103737.09;5136877;29;20032;-74
2023/12/16 07:32:41;;;;;;;18.10;4.68;;;;;;;4.60;100.00;103740.28;5136016;29;20051;-75
2023/12/16 07:35:13;;;;;;;14.13;5.73;;;;;;;4.56;100.00;103748.66;5135603;29;20039;-75
2023/12/16 07:37:44;;;;;;;21.23;5.27;;;;;;;4.63;100.00;103755.09;5136782;28;20086;-75
2023/12/16 07:40:16;;;;;;;20.90;5.90;;;;;;;4.64;100.00;103751.72;5136185;29;20125;-74
2023/12/16 07:42:47;;;;;;;17.20;5.10;;;;;;;4.68;100.00;103761.41;5136176;29;20082;-75
2023/12/16 07:45:18;;;;;;;13.27;5.00;;;;;;;4.70;100.00;103755.53;5137083;29;20040;-73
2023/12/16 07:47:50;;;;;;;16.60;4.83;;;;;;;4.69;100.00;103751.16;5135839;29;20067;-76
2023/12/16 07:50:21;;;;;;;17.27;5.10;;;;;;;4.71;100.00;103759.00;5137011;29;20573;-74
2023/12/16 07:52:53;;;;;;;17.87;5.77;;;;;;;4.72;100.00;103753.94;5136277;28;20328;-74
2023/12/16 07:55:27;;;;;;;17.50;5.03;;;;;;;4.73;100.00;103758.31;5134930;28;20043;-74
2023/12/16 07:57:59;;;;;;;18.30;4.70;;;;;;;4.82;100.00;103760.53;5133432;28;20032;-74
2023/12/16 08:00:30;;;;;;;18.83;4.70;;;;;;;4.84;100.00;103763.22;5136803;28;20518;-73
2023/12/16 08:03:01;;;;;;;20.10;5.57;;;;;;;4.90;100.00;103755.81;5201867;28;20039;-73
2023/12/16 08:05:33;;;;;;;17.13;5.90;;;;;;;4.90;100.00;103769.63;5117944;28;20376;-74
2023/12/16 08:08:05;;;;;;;16.25;4.75;;;;;;;4.92;100.00;103773.19;5131151;29;20035;-75
2023/12/16 08:10:36;;;;;;;16.30;5.03;;;;;;;4.95;100.00;103776.78;5117263;29;20036;-75
2023/12/16 08:13:07;;;;;;;14.20;4.50;;;;;;;4.93;100.00;103769.81;5115219;28;20135;-74
2023/12/16 08:15:39;;;;;;;15.57;4.40;;;;;;;4.98;100.00;103780.41;5117696;29;20142;-75
2023/12/16 08:18:12;;;;;;;12.33;4.67;;;;;;;4.97;100.00;103777.75;5136455;29;20097;-74
2023/12/16 08:20:43;;;;;;;15.73;4.65;;;;;;;4.99;100.00;103776.13;5135072;28;20036;-75
2023/12/16 08:23:16;;;;;;;18.87;5.73;;;;;;;4.95;100.00;103784.53;5135129;29;20398;-74
2023/12/16 08:25:47;;;;;;;;;;;;;;;5.00;100.00;103785.69;5137130;28;20471;-74
2023/12/16 08:28:19;;;;;;;19.20;4.53;;;;;;;4.97;100.00;103788.97;5135081;29;20029;-74
2023/12/16 08:30:52;;;;;;;22.17;4.83;;;;;;;5.09;100.00;103786.22;5136848;28;20034;-75
2023/12/16 08:33:23;;;;;;;24.45;6.20;;;;;;;5.23;100.00;103794.75;5131781;28;20326;-75
2023/12/16 08:35:56;;;;;;;13.70;4.40;;;;;;;5.37;100.00;103801.63;5136797;28;20088;-75
2023/12/16 08:38:28;;;;;;;17.83;5.55;;;;;;;5.45;100.00;103795.19;5136453;28;20036;-75
2023/12/16 08:41:00;;;;;;;25.63;6.65;;;;;;;5.56;100.00;103800.09;5136306;28;20097;-76
2023/12/16 08:43:31;;;;;;;22.13;5.60;;;;;;;5.60;100.00;103794.28;5137474;28;20098;-75
2023/12/16 08:46:03;;;;;;;16.80;4.90;;;;;;;5.68;100.00;103795.59;5133815;29;20043;-74
2023/12/16 08:48:35;;;;;;;16.40;4.63;;;;;;;5.78;100.00;103799.56;5136421;28;20395;-75
2023/12/16 08:51:07;;;;;;;25.07;5.93;;;;;;;5.87;100.00;103783.69;5136226;29;20085;-75
2023/12/16 08:53:38;;;;;;;13.33;4.67;;;;;;;5.97;100.00;103785.97;5135407;28;20288;-75
2023/12/16 08:56:09;;;;;;;15.97;4.20;;;;;;;6.03;100.00;103787.19;5135486;28;20032;-76
2023/12/16 08:58:41;;;;;;;16.13;4.20;;;;;;;6.10;100.00;103792.72;5135888;28;20040;-76
2023/12/16 09:01:12;;;;;;;18.00;5.53;;;;;;;6.14;100.00;103785.19;5135332;29;20035;-76
2023/12/16 09:03:44;;;;;;;13.93;5.37;;;;;;;6.18;100.00;103783.66;5137213;29;20094;-76
2023/12/16 09:06:15;;;;;;;16.40;4.90;;;;;;;6.19;100.00;103786.34;5137191;29;20042;-76
2023/12/16 09:08:47;;;;;;;18.20;5.17;;;;;;;6.29;100.00;103798.06;5137143;29;20027;-76
2023/12/16 09:11:18;;;;;;;13.23;4.00;;;;;;;6.34;100.00;103804.41;5137174;29;20038;-76
2023/12/16 09:13:49;;;;;;;14.23;4.27;;;;;;;6.41;100.00;103800.44;5137407;29;20487;-75
2023/12/16 09:16:21;;;;;;;16.70;4.73;;;;;;;6.49;100.00;103793.97;5219278;28;20130;-77
2023/12/16 09:18:52;;;;;;;15.10;4.70;;;;;;;6.52;100.00;103799.31;5136878;29;20032;-77
2023/12/16 09:21:23;;;;;;;20.93;5.00;;;;;;;6.55;100.00;103804.66;5138407;29;20032;-76
2023/12/16 09:23:55;;;;;;;16.77;4.80;;;;;;;6.59;100.00;103794.47;5137454;29;20062;-77
2023/12/16 09:26:27;;;;;;;21.07;5.00;;;;;;;6.65;100.00;103806.03;5137392;29;20115;-76
2023/12/16 09:28:59;;;;;;;15.77;5.17;;;;;;;6.72;100.00;103797.75;5139180;29;20035;-77
2023/12/16 09:31:31;;;;;;;15.77;5.07;;;;;;;6.78;100.00;103807.56;5221932;28;20047;-77
2023/12/16 09:34:02;;;;;;;20.53;4.80;;;;;;;6.86;100.00;103806.25;5140613;29;20032;-77
2023/12/16 09:36:34;;;;;;;16.03;4.97;;;;;;;6.88;100.00;103814.97;5140464;28;20491;-77
2023/12/16 09:39:05;;;;;;;14.70;4.17;;;;;;;6.92;100.00;103821.22;5140247;28;20071;-76
2023/12/16 09:41:42;;;;;;;18.80;4.53;;;;;;;6.94;100.00;103820.50;5140461;29;20031;-76
2023/12/16 09:44:19;;;;;;;15.38;4.68;;;;;;;7.00;100.00;103819.88;5140171;28;20085;-76
2023/12/16 09:46:51;;;;;;;19.30;6.97;;;;;;;7.02;100.00;103817.38;5154549;29;20039;-77
2023/12/16 09:49:26;;;;;;;18.58;5.82;;;;;;;7.09;100.00;103822.97;5139767;28;20035;-78
2023/12/16 09:51:57;;;;;;;14.85;5.40;;;;;;;7.14;100.00;103818.00;5139644;29;20062;-77
2023/12/16 09:54:29;;;;;;;16.20;5.57;;;;;;;7.17;100.00;103833.72;5222782;28;20075;-75
2023/12/16 09:57:01;;;;;;;21.63;6.10;;;;;;;7.29;100.00;103828.25;5140284;29;20035;-76
2023/12/16 09:59:34;;;;;;;;;;;;;;;7.30;100.00;103828.31;5140354;29;20034;-76
2023/12/16 10:02:21;;;;;;;19.55;5.70;;;;;;;7.32;100.00;103827.53;5154541;28;20013;-76
2023/12/16 10:04:57;;;;;;;18.60;5.18;;;;;;;7.46;100.00;103832.56;5140216;28;20092;-78
2023/12/16 10:07:29;;;;;;;20.95;5.63;;;;;;;7.44;100.00;103829.03;5139828;29;20111;-76
2023/12/16 10:10:00;;;;;;;17.00;5.50;;;;;;;7.49;100.00;103834.44;5139754;28;20044;-77
2023/12/16 10:12:33;;;;;;;21.70;6.23;;;;;;;7.45;100.00;103841.19;5153841;28;20039;-76
2023/12/16 10:15:05;;;;;;;18.70;6.32;;;;;;;7.45;100.00;103840.28;5220976;28;20032;-76
2023/12/16 10:17:36;;;;;;;18.03;6.20;;;;;;;7.49;100.00;103831.84;5139293;28;20086;-75
2023/12/16 10:20:09;;;;;;;20.80;6.97;;;;;;;7.46;100.00;103829.97;5139199;28;20059;-75
2023/12/16 10:22:40;;;;;;;;;;;;;;;7.59;100.00;103838.38;5139727;29;20031;-73
2023/12/16 10:25:12;;;;;;;16.63;6.55;;;;;;;7.55;100.00;103839.94;5139039;29;19938;-77
2023/12/16 10:27:43;;;;;;;18.60;5.50;;;;;;;7.59;100.00;103839.25;5139669;28;20375;-74
2023/12/16 10:30:15;;;;;;;22.83;7.30;;;;;;;7.58;100.00;103834.91;5139426;29;20633;-77
2023/12/16 10:32:46;;;;;;;16.13;5.67;;;;;;;7.62;100.00;103839.41;5139215;29;20116;-77
2023/12/16 10:35:18;;;;;;;20.20;6.97;;;;;;;7.68;100.00;103828.44;5139452;29;20035;-75
2023/12/16 10:37:50;;;;;;;18.37;5.53;;;;;;;7.74;100.00;103831.31;5139503;29;20040;-76
2023/12/16 10:40:26;;;;;;;;;;;;;;;7.83;100.00;103836.94;5138446;28;20110;-76
2023/12/16 10:42:58;;;;;;;20.40;6.93;;;;;;;7.80;100.00;103826.41;5153889;29;19994;-75
2023/12/16 10:45:29;;;;;;;16.47;7.07;;;;;;;7.80;100.00;103822.94;5138848;28;20543;-73
2023/12/16 10:48:09;;;;;;;18.97;6.33;;;;;;;7.78;100.00;103825.47;5138836;28;20032;-75
2023/12/16 10:50:45;;;;;;;24.58;7.00;;;;;;;7.78;100.00;103817.66;5139072;29;20036;-75
2023/12/16 10:53:25;;;;;;;18.17;6.88;;;;;;;7.84;100.00;103820.56;5138480;29;20040;-75
2023/12/16 10:56:02;;;;;;;17.38;8.50;;;;;;;7.87;100.00;103819.78;5139054;29;20062;-76
2023/12/16 10:58:43;;;;;;;23.17;7.55;;;;;;;7.90;100.00;103819.94;5138820;29;20032;-76
2023/12/16 11:01:18;;;;;;;14.68;6.32;;;;;;;7.91;100.00;103820.84;5139423;29;20089;-76
2023/12/16 11:04:02;;;;;;;15.73;6.68;;;;;;;7.88;100.00;103811.19;5138612;29;20027;-75
2023/12/16 11:06:40;;;;;;;15.23;6.07;;;;;;;7.93;100.00;103808.81;5138275;28;20038;-76
2023/12/16 11:09:12;;;;;;;17.25;6.95;;;;;;;7.98;100.00;103815.13;5138787;29;20090;-75
2023/12/16 11:11:45;;;;;;;20.13;7.67;;;;;;;7.92;100.00;103802.75;5139768;29;20040;-75
2023/12/16 11:14:17;;;;;;;;;;;;;;;8.00;100.00;103809.19;5142083;29;20486;-75
2023/12/16 11:17:05;;;;;;;18.92;6.45;;;;;;;8.02;100.00;103801.47;5142278;29;20386;-76
2023/12/16 11:19:42;;;;;;;21.35;7.57;;;;;;;8.02;100.00;103794.56;5144032;29;20038;-76
2023/12/16 11:22:21;;;;;;;17.40;6.68;;;;;;;7.99;100.00;103791.81;5139647;29;20036;-75
2023/12/16 11:24:53;;;;;;;20.80;7.45;;;;;;;8.03;100.00;103782.44;5138980;28;20071;-74
2023/12/16 11:27:28;;;;;;;22.17;7.60;;;;;;;8.00;100.00;103780.59;5139155;28;20075;-75
2023/12/16 11:29:59;;;;;;;21.67;7.28;;;;;;;8.04;100.00;103782.50;5138532;28;20114;-75
2023/12/16 11:32:31;;;;;;;17.50;7.03;;;;;;;8.01;100.00;103787.56;5138281;29;20119;-75
2023/12/16 11:35:02;;;;;;;19.40;7.87;;;;;;;8.02;100.00;103775.47;5138085;29;20034;-76
2023/12/16 11:37:34;;;;;;;19.73;7.70;;;;;;;8.02;100.00;103781.56;5137884;28;20036;-75
2023/12/16 11:40:09;;;;;;;21.67;6.80;;;;;;;7.95;100.00;103781.19;5137956;29;20044;-77
2023/12/16 11:42:43;;;;;;;17.75;7.18;;;;;;;7.98;100.00;103776.16;5138141;28;20098;-75